Aérodrome :
LOGIN :

S'inscrire | Disclaimer

   EN    FR    IT 

 










Légende :    VFR   VFR Marginal   IFR   IFR Intensif   IFR Très Intensif
Visi : 
Plafond : 
>= 8 km
>= 3000ft
5 à 8 km
1000 à 3000 ft
1500m à 5 km
500 à 1000 ft
800 à 1500m
200 à 500 ft
< 800m
< 200 ft
Symboles :   Orages  Brouillard  Fortes neiges  Fortes précipitations  Vent > 20 kt
SIGMETs :   Divers  Orages  Givrage  Turbulence  Onde Orograph.  Cendres Volcan.







- Altitude de l'aérodrome : 83 ft
- Code IATA : LHR
- Voir les cartes d'approche


EGLL - London Heathrow

DERNIER METAR :
  • 230650Z AUTO 23014KT 9999 BKN027 13/10 Q0990 BECMG 23016G26KT

METARs EXPIRÉS :
  • 230620Z AUTO 24016KT 9999 FEW024 SCT030 13/10 Q0990 NOSIG
  • 230550Z AUTO 24015KT 9999 SCT018 BKN023 BKN030 13/10 Q0989 NOSIG
  • 230520Z AUTO 24012KT 9999 SCT017 BKN022 13/10 Q0988 NOSIG
  • 230450Z AUTO 22012KT 9999 SCT020 BKN025 13/11 Q0987 NOSIG
  • 230420Z AUTO 22012KT 9999 //////TCU 13/11 Q0987 NOSIG

TAF COR TAF EGLL
Valide du 23 à 06h jusqu'au 24 à 12h UTC


230519Z 2306/2412 24012KT 9999 SCT025
TEMPO 2306/2309 26016G28KT
BECMG 2309/2312 23018G32KT
BECMG 2314/2317 23010KT
BECMG 2321/2324 VRB03KT
TEMPO 2322/2406 6000 RA BKN012
Pas de NOTAMs connus pour ce terrain.
1 SIGMET publié pour la FIR London (EGTT) :
 
Turbulence forte
EGTT SIGMET 02 VALID 230600/231000 EGRR
EGTT LONDON FIR SEV TURB FCST E OF LINE N5000 W00015 - N5500 E00258 SFC/FL060 MOV E 20KT WKN=



MET'MAP, la Météo Aéronautique d'un coup d'oeil ! - Copyright ORBIFLY Décembre 2007 - Disclaimer

ORBIFLY MET'MAP TEAM :

Programmation & Développement : Alexandra Zaïnal
Conception & Développement : Baudouin d'Aumeries
Co-Programmation & Développement : Marc-Olivier Méhu
Soutien technique & logistique : Manuel Goepfert

Contact : metmap@orbifly.com




SOURCES & CREDITS :

   NOAA